sensor_id;sensor_type;location;lat;lon;timestamp;pressure;altitude;pressure_sealevel;temperature;humidity
66560;BME280;53413;49.878;8.142;2022-08-06T00:00:28;100633.16;;;17.27;nan
66560;BME280;53413;49.878;8.142;2022-08-06T00:02:53;100635.91;;;17.25;nan
66560;BME280;53413;49.878;8.142;2022-08-06T00:05:19;100631.66;;;17.22;nan
66560;BME280;53413;49.878;8.142;2022-08-06T00:07:44;100636.16;;;17.20;nan
66560;BME280;53413;49.878;8.142;2022-08-06T00:10:10;100642.50;;;17.18;nan
66560;BME280;53413;49.878;8.142;2022-08-06T00:12:35;100649.75;;;17.14;nan
66560;BME280;53413;49.878;8.142;2022-08-06T00:15:03;100656.84;;;17.14;nan
66560;BME280;53413;49.878;8.142;2022-08-06T00:17:29;100654.28;;;17.12;nan
66560;BME280;53413;49.878;8.142;2022-08-06T00:19:54;100653.41;;;17.12;nan
66560;BME280;53413;49.878;8.142;2022-08-06T00:22:20;100655.28;;;17.10;nan
66560;BME280;53413;49.878;8.142;2022-08-06T00:24:45;100658.88;;;17.08;nan
66560;BME280;53413;49.878;8.142;2022-08-06T00:27:11;100651.03;;;17.07;nan
66560;BME280;53413;49.878;8.142;2022-08-06T00:29:36;100657.34;;;17.04;nan
66560;BME280;53413;49.878;8.142;2022-08-06T00:32:02;100662.66;;;17.04;nan
66560;BME280;53413;49.878;8.142;2022-08-06T00:34:27;100661.72;;;17.05;nan
66560;BME280;53413;49.878;8.142;2022-08-06T00:36:52;100653.94;;;17.02;nan
66560;BME280;53413;49.878;8.142;2022-08-06T00:39:18;100658.47;;;17.00;nan
66560;BME280;53413;49.878;8.142;2022-08-06T00:41:43;100668.28;;;16.98;nan
66560;BME280;53413;49.878;8.142;2022-08-06T00:44:09;100666.66;;;16.96;nan
66560;BME280;53413;49.878;8.142;2022-08-06T00:46:35;100675.59;;;16.93;nan
66560;BME280;53413;49.878;8.142;2022-08-06T00:49:00;100684.63;;;16.89;nan
66560;BME280;53413;49.878;8.142;2022-08-06T00:51:25;100677.78;;;16.85;nan
66560;BME280;53413;49.878;8.142;2022-08-06T00:53:51;100681.56;;;16.81;nan
66560;BME280;53413;49.878;8.142;2022-08-06T00:56:17;100685.38;;;16.75;nan
66560;BME280;53413;49.878;8.142;2022-08-06T00:58:42;100683.03;;;16.69;nan
66560;BME280;53413;49.878;8.142;2022-08-06T01:01:08;100689.66;;;16.60;nan
66560;BME280;53413;49.878;8.142;2022-08-06T01:03:34;100688.28;;;16.53;nan
66560;BME280;53413;49.878;8.142;2022-08-06T01:05:59;100698.28;;;16.48;nan
66560;BME280;53413;49.878;8.142;2022-08-06T01:08:25;100707.34;;;16.42;nan
66560;BME280;53413;49.878;8.142;2022-08-06T01:10:50;100703.34;;;16.35;nan
66560;BME280;53413;49.878;8.142;2022-08-06T01:13:15;100700.28;;;16.25;nan
66560;BME280;53413;49.878;8.142;2022-08-06T01:15:49;100706.06;;;16.15;nan
66560;BME280;53413;49.878;8.142;2022-08-06T01:18:24;100710.94;;;16.06;nan
66560;BME280;53413;49.878;8.142;2022-08-06T01:21:09;100714.00;;;15.98;nan
66560;BME280;53413;49.878;8.142;2022-08-06T01:24:08;100714.38;;;15.90;nan
66560;BME280;53413;49.878;8.142;2022-08-06T01:29:20;100716.47;;;15.82;nan
66560;BME280;53413;49.878;8.142;2022-08-06T01:31:52;100724.59;;;15.79;nan
66560;BME280;53413;49.878;8.142;2022-08-06T01:34:27;100729.88;;;15.79;nan
66560;BME280;53413;49.878;8.142;2022-08-06T01:37:24;100728.16;;;15.78;nan
66560;BME280;53413;49.878;8.142;2022-08-06T01:39:57;100725.78;;;15.72;nan
66560;BME280;53413;49.878;8.142;2022-08-06T01:42:25;100717.31;;;15.65;nan
66560;BME280;53413;49.878;8.142;2022-08-06T01:44:52;100723.72;;;15.59;nan
66560;BME280;53413;49.878;8.142;2022-08-06T01:47:20;100721.50;;;15.51;nan
66560;BME280;53413;49.878;8.142;2022-08-06T01:49:52;100727.88;;;15.46;nan
66560;BME280;53413;49.878;8.142;2022-08-06T01:52:19;100726.56;;;15.37;nan
66560;BME280;53413;49.878;8.142;2022-08-06T01:54:47;100727.75;;;15.30;nan
66560;BME280;53413;49.878;8.142;2022-08-06T01:57:16;100727.19;;;15.23;nan
66560;BME280;53413;49.878;8.142;2022-08-06T01:59:46;100732.75;;;15.17;nan
66560;BME280;53413;49.878;8.142;2022-08-06T02:02:16;100738.16;;;15.14;nan
66560;BME280;53413;49.878;8.142;2022-08-06T02:04:43;100730.47;;;15.09;nan
66560;BME280;53413;49.878;8.142;2022-08-06T02:07:12;100739.53;;;15.03;nan
66560;BME280;53413;49.878;8.142;2022-08-06T02:09:40;100735.38;;;14.98;nan
66560;BME280;53413;49.878;8.142;2022-08-06T02:12:12;100739.16;;;14.92;nan
66560;BME280;53413;49.878;8.142;2022-08-06T02:14:47;100741.13;;;14.87;nan
66560;BME280;53413;49.878;8.142;2022-08-06T02:17:15;100747.47;;;14.83;nan
66560;BME280;53413;49.878;8.142;2022-08-06T02:19:45;100749.41;;;14.79;nan
66560;BME280;53413;49.878;8.142;2022-08-06T02:22:13;100755.66;;;14.76;nan
66560;BME280;53413;49.878;8.142;2022-08-06T02:24:38;100754.13;;;14.71;nan
66560;BME280;53413;49.878;8.142;2022-08-06T02:27:04;100749.94;;;14.65;nan
66560;BME280;53413;49.878;8.142;2022-08-06T02:29:31;100758.94;;;14.61;nan
66560;BME280;53413;49.878;8.142;2022-08-06T02:31:57;100752.91;;;14.57;nan
66560;BME280;53413;49.878;8.142;2022-08-06T02:34:23;100749.69;;;14.51;nan
66560;BME280;53413;49.878;8.142;2022-08-06T02:36:55;100768.34;;;14.46;nan
66560;BME280;53413;49.878;8.142;2022-08-06T02:39:25;100762.34;;;14.42;nan
66560;BME280;53413;49.878;8.142;2022-08-06T02:50:11;100762.63;;;14.36;nan
66560;BME280;53413;49.878;8.142;2022-08-06T02:52:52;100765.25;;;14.36;nan
66560;BME280;53413;49.878;8.142;2022-08-06T02:55:20;100766.09;;;14.37;nan
66560;BME280;53413;49.878;8.142;2022-08-06T02:58:13;100766.19;;;14.35;nan
66560;BME280;53413;49.878;8.142;2022-08-06T03:00:42;100763.59;;;14.34;nan
66560;BME280;53413;49.878;8.142;2022-08-06T03:03:10;100762.88;;;14.30;nan
66560;BME280;53413;49.878;8.142;2022-08-06T03:05:41;100769.06;;;14.29;nan
66560;BME280;53413;49.878;8.142;2022-08-06T03:08:09;100774.44;;;14.26;nan
66560;BME280;53413;49.878;8.142;2022-08-06T03:10:36;100769.25;;;14.24;nan
66560;BME280;53413;49.878;8.142;2022-08-06T03:13:02;100777.22;;;14.23;nan
66560;BME280;53413;49.878;8.142;2022-08-06T03:15:32;100775.63;;;14.19;nan
66560;BME280;53413;49.878;8.142;2022-08-06T03:17:58;100776.66;;;14.14;nan
66560;BME280;53413;49.878;8.142;2022-08-06T03:20:26;100785.56;;;14.12;nan
66560;BME280;53413;49.878;8.142;2022-08-06T03:22:55;100780.38;;;14.10;nan
66560;BME280;53413;49.878;8.142;2022-08-06T03:25:22;100784.84;;;14.08;nan
66560;BME280;53413;49.878;8.142;2022-08-06T03:27:48;100787.56;;;14.07;nan
66560;BME280;53413;49.878;8.142;2022-08-06T03:30:17;100781.53;;;14.03;nan
66560;BME280;53413;49.878;8.142;2022-08-06T03:32:44;100786.88;;;14.01;nan
66560;BME280;53413;49.878;8.142;2022-08-06T03:35:11;100779.03;;;14.00;nan
66560;BME280;53413;49.878;8.142;2022-08-06T03:37:37;100770.25;;;13.99;nan
66560;BME280;53413;49.878;8.142;2022-08-06T03:40:04;100774.78;;;13.96;nan
66560;BME280;53413;49.878;8.142;2022-08-06T03:42:31;100780.13;;;13.94;nan
66560;BME280;53413;49.878;8.142;2022-08-06T03:44:56;100781.97;;;13.92;nan
66560;BME280;53413;49.878;8.142;2022-08-06T03:47:24;100781.09;;;13.92;nan
66560;BME280;53413;49.878;8.142;2022-08-06T03:50:11;100785.56;;;13.90;nan
66560;BME280;53413;49.878;8.142;2022-08-06T03:52:39;100790.91;;;13.88;nan
66560;BME280;53413;49.878;8.142;2022-08-06T03:55:07;100792.69;;;13.88;nan
66560;BME280;53413;49.878;8.142;2022-08-06T03:57:41;100786.56;;;13.87;nan
66560;BME280;53413;49.878;8.142;2022-08-06T04:00:09;100793.63;;;13.87;nan
66560;BME280;53413;49.878;8.142;2022-08-06T04:02:42;100789.38;;;13.82;nan
66560;BME280;53413;49.878;8.142;2022-08-06T04:05:10;100800.78;;;13.83;nan
66560;BME280;53413;49.878;8.142;2022-08-06T04:07:36;100793.72;;;13.83;nan
66560;BME280;53413;49.878;8.142;2022-08-06T04:10:05;100799.91;;;13.82;nan
66560;BME280;53413;49.878;8.142;2022-08-06T04:12:31;100792.81;;;13.84;nan
66560;BME280;53413;49.878;8.142;2022-08-06T04:14:57;100792.81;;;13.84;nan
66560;BME280;53413;49.878;8.142;2022-08-06T04:17:24;100801.63;;;13.83;nan
66560;BME280;53413;49.878;8.142;2022-08-06T04:19:51;100799.78;;;13.85;nan
66560;BME280;53413;49.878;8.142;2022-08-06T04:22:17;100797.97;;;13.88;nan
66560;BME280;53413;49.878;8.142;2022-08-06T04:24:42;100805.78;;;13.89;nan
66560;BME280;53413;49.878;8.142;2022-08-06T04:27:09;100803.09;;;13.91;nan
66560;BME280;53413;49.878;8.142;2022-08-06T04:29:36;100808.19;;;13.95;nan
66560;BME280;53413;49.878;8.142;2022-08-06T04:32:03;100814.31;;;13.96;nan
66560;BME280;53413;49.878;8.142;2022-08-06T04:34:29;100811.69;;;13.96;nan
66560;BME280;53413;49.878;8.142;2022-08-06T04:36:57;100820.38;;;13.98;nan
66560;BME280;53413;49.878;8.142;2022-08-06T04:39:24;100821.13;;;14.01;nan
66560;BME280;53413;49.878;8.142;2022-08-06T04:41:50;100821.84;;;14.05;nan
66560;BME280;53413;49.878;8.142;2022-08-06T04:44:16;100825.19;;;14.10;nan
66560;BME280;53413;49.878;8.142;2022-08-06T04:46:42;100825.91;;;14.14;nan
66560;BME280;53413;49.878;8.142;2022-08-06T04:49:13;100828.34;;;14.19;nan
66560;BME280;53413;49.878;8.142;2022-08-06T04:51:39;100832.59;;;14.23;nan
66560;BME280;53413;49.878;8.142;2022-08-06T04:54:05;100835.84;;;14.29;nan
66560;BME280;53413;49.878;8.142;2022-08-06T04:56:31;100833.75;;;14.38;nan
66560;BME280;53413;49.878;8.142;2022-08-06T04:58:56;100836.91;;;14.46;nan
66560;BME280;53413;49.878;8.142;2022-08-06T05:01:21;100837.47;;;14.54;nan
66560;BME280;53413;49.878;8.142;2022-08-06T05:03:47;100840.56;;;14.64;nan
66560;BME280;53413;49.878;8.142;2022-08-06T05:06:22;100846.34;;;14.74;nan
66560;BME280;53413;49.878;8.142;2022-08-06T05:08:53;100848.59;;;14.83;nan
66560;BME280;53413;49.878;8.142;2022-08-06T05:14:03;100853.94;;;15.02;nan
66560;BME280;53413;49.878;8.142;2022-08-06T05:16:32;100850.75;;;15.15;nan
66560;BME280;53413;49.878;8.142;2022-08-06T05:19:01;100860.88;;;15.26;nan
66560;BME280;53413;49.878;8.142;2022-08-06T05:21:33;100863.00;;;15.36;nan
66560;BME280;53413;49.878;8.142;2022-08-06T05:24:02;100859.75;;;15.50;nan
66560;BME280;53413;49.878;8.142;2022-08-06T05:26:27;100858.34;;;15.62;nan
66560;BME280;53413;49.878;8.142;2022-08-06T05:28:53;100860.50;;;15.73;nan
66560;BME280;53413;49.878;8.142;2022-08-06T05:31:32;100863.53;;;15.84;nan
66560;BME280;53413;49.878;8.142;2022-08-06T05:34:00;100859.50;;;15.95;nan
66560;BME280;53413;49.878;8.142;2022-08-06T05:36:25;100859.06;;;16.04;nan
66560;BME280;53413;49.878;8.142;2022-08-06T05:38:51;100862.16;;;16.14;nan
66560;BME280;53413;49.878;8.142;2022-08-06T05:41:16;100870.41;;;16.25;nan
66560;BME280;53413;49.878;8.142;2022-08-06T05:43:42;100867.22;;;16.36;nan
66560;BME280;53413;49.878;8.142;2022-08-06T05:46:10;100867.50;;;16.49;nan
66560;BME280;53413;49.878;8.142;2022-08-06T05:49:02;100872.25;;;16.60;nan
66560;BME280;53413;49.878;8.142;2022-08-06T05:53:57;100876.16;;;16.88;nan
66560;BME280;53413;49.878;8.142;2022-08-06T05:56:28;100878.91;;;17.04;nan
66560;BME280;53413;49.878;8.142;2022-08-06T05:59:21;100878.75;;;17.25;nan
66560;BME280;53413;49.878;8.142;2022-08-06T06:01:48;100890.84;;;17.46;nan
66560;BME280;53413;49.878;8.142;2022-08-06T06:04:15;100876.34;;;17.69;nan
66560;BME280;53413;49.878;8.142;2022-08-06T06:06:41;100885.16;;;18.20;nan
66560;BME280;53413;49.878;8.142;2022-08-06T06:09:07;100882.72;;;21.43;nan
66560;BME280;53413;49.878;8.142;2022-08-06T06:11:33;100880.88;;;26.17;nan
66560;BME280;53413;49.878;8.142;2022-08-06T06:13:59;100877.69;;;30.07;nan
66560;BME280;53413;49.878;8.142;2022-08-06T06:22:29;100902.16;;;37.93;nan
66560;BME280;53413;49.878;8.142;2022-08-06T06:33:12;100913.63;;;42.39;nan
66560;BME280;53413;49.878;8.142;2022-08-06T06:38:23;100915.75;;;43.67;nan
66560;BME280;53413;49.878;8.142;2022-08-06T06:43:56;100905.22;;;44.89;nan
66560;BME280;53413;49.878;8.142;2022-08-06T06:46:43;100910.22;;;45.56;nan
66560;BME280;53413;49.878;8.142;2022-08-06T06:51:48;100911.69;;;46.87;nan
66560;BME280;53413;49.878;8.142;2022-08-06T06:54:44;100907.13;;;47.33;nan
66560;BME280;53413;49.878;8.142;2022-08-06T06:57:17;100909.84;;;47.93;nan
66560;BME280;53413;49.878;8.142;2022-08-06T06:59:47;100913.28;;;47.14;nan
66560;BME280;53413;49.878;8.142;2022-08-06T07:02:22;100914.91;;;47.31;nan
66560;BME280;53413;49.878;8.142;2022-08-06T07:04:50;100911.81;;;47.93;nan
66560;BME280;53413;49.878;8.142;2022-08-06T07:07:18;100912.09;;;48.26;nan
66560;BME280;53413;49.878;8.142;2022-08-06T07:09:44;100911.56;;;48.53;nan
66560;BME280;53413;49.878;8.142;2022-08-06T07:12:14;100906.94;;;48.97;nan
66560;BME280;53413;49.878;8.142;2022-08-06T07:14:41;100919.47;;;49.63;nan
66560;BME280;53413;49.878;8.142;2022-08-06T07:17:08;100919.34;;;49.54;nan
66560;BME280;53413;49.878;8.142;2022-08-06T07:19:36;100916.31;;;49.07;nan
66560;BME280;53413;49.878;8.142;2022-08-06T07:22:03;100916.22;;;48.63;nan
66560;BME280;53413;49.878;8.142;2022-08-06T07:24:31;100915.66;;;47.97;nan
66560;BME280;53413;49.878;8.142;2022-08-06T07:26:59;100914.66;;;48.81;nan
66560;BME280;53413;49.878;8.142;2022-08-06T07:29:25;100914.06;;;49.52;nan
66560;BME280;53413;49.878;8.142;2022-08-06T07:31:51;100922.97;;;50.26;nan
66560;BME280;53413;49.878;8.142;2022-08-06T07:34:19;100914.75;;;50.81;nan
66560;BME280;53413;49.878;8.142;2022-08-06T07:36:48;100922.88;;;50.50;nan
66560;BME280;53413;49.878;8.142;2022-08-06T07:39:29;100930.75;;;50.43;nan
66560;BME280;53413;49.878;8.142;2022-08-06T07:41:59;100926.50;;;49.79;nan
66560;BME280;53413;49.878;8.142;2022-08-06T07:44:26;100920.91;;;49.41;nan
66560;BME280;53413;49.878;8.142;2022-08-06T07:46:55;100923.50;;;49.13;nan
66560;BME280;53413;49.878;8.142;2022-08-06T07:49:25;100922.19;;;49.49;nan
66560;BME280;53413;49.878;8.142;2022-08-06T07:51:53;100926.22;;;50.33;nan
66560;BME280;53413;49.878;8.142;2022-08-06T07:54:21;100920.72;;;51.03;nan
66560;BME280;53413;49.878;8.142;2022-08-06T07:56:48;100922.13;;;49.29;nan
66560;BME280;53413;49.878;8.142;2022-08-06T07:59:14;100932.47;;;50.58;nan
66560;BME280;53413;49.878;8.142;2022-08-06T08:01:40;100942.34;;;51.25;nan
66560;BME280;53413;49.878;8.142;2022-08-06T08:04:07;100933.31;;;52.47;nan
66560;BME280;53413;49.878;8.142;2022-08-06T08:06:59;100936.06;;;52.70;nan
66560;BME280;53413;49.878;8.142;2022-08-06T08:09:25;100936.41;;;51.54;nan
66560;BME280;53413;49.878;8.142;2022-08-06T08:11:51;100935.28;;;51.41;nan
66560;BME280;53413;49.878;8.142;2022-08-06T08:14:21;100934.56;;;51.22;nan
66560;BME280;53413;49.878;8.142;2022-08-06T08:16:48;100932.13;;;49.74;nan
66560;BME280;53413;49.878;8.142;2022-08-06T08:21:53;100939.22;;;51.40;nan
66560;BME280;53413;49.878;8.142;2022-08-06T08:24:21;100945.66;;;51.27;nan
66560;BME280;53413;49.878;8.142;2022-08-06T08:26:47;100953.56;;;52.21;nan
66560;BME280;53413;49.878;8.142;2022-08-06T08:29:13;100917.00;;;49.61;nan
66560;BME280;53413;49.878;8.142;2022-08-06T08:31:38;100949.72;;;49.07;nan
66560;BME280;53413;49.878;8.142;2022-08-06T08:34:04;100971.97;;;51.99;nan
66560;BME280;53413;49.878;8.142;2022-08-06T08:36:29;100970.41;;;54.21;nan
66560;BME280;53413;49.878;8.142;2022-08-06T08:38:54;100966.63;;;54.26;nan
66560;BME280;53413;49.878;8.142;2022-08-06T08:41:31;100977.69;;;55.68;nan
66560;BME280;53413;49.878;8.142;2022-08-06T08:44:07;100978.94;;;57.34;nan
66560;BME280;53413;49.878;8.142;2022-08-06T08:46:40;100977.44;;;57.77;nan
66560;BME280;53413;49.878;8.142;2022-08-06T08:49:11;100982.00;;;57.82;nan
66560;BME280;53413;49.878;8.142;2022-08-06T08:51:40;100972.38;;;57.99;nan
66560;BME280;53413;49.878;8.142;2022-08-06T08:54:08;100976.59;;;57.24;nan
66560;BME280;53413;49.878;8.142;2022-08-06T08:56:34;100962.91;;;55.29;nan
66560;BME280;53413;49.878;8.142;2022-08-06T08:59:01;100951.56;;;54.48;nan
66560;BME280;53413;49.878;8.142;2022-08-06T09:01:27;100964.16;;;56.50;nan
66560;BME280;53413;49.878;8.142;2022-08-06T09:03:53;100956.69;;;57.16;nan
66560;BME280;53413;49.878;8.142;2022-08-06T09:06:20;100959.94;;;57.72;nan
66560;BME280;53413;49.878;8.142;2022-08-06T09:08:46;100968.63;;;59.04;nan
66560;BME280;53413;49.878;8.142;2022-08-06T09:11:14;100961.97;;;59.51;nan
66560;BME280;53413;49.878;8.142;2022-08-06T09:13:39;100968.72;;;60.48;nan
66560;BME280;53413;49.878;8.142;2022-08-06T09:16:05;100961.41;;;60.97;nan
66560;BME280;53413;49.878;8.142;2022-08-06T09:18:31;100963.88;;;61.03;nan
66560;BME280;53413;49.878;8.142;2022-08-06T09:20:58;100944.34;;;59.19;nan
66560;BME280;53413;49.878;8.142;2022-08-06T09:23:25;100933.78;;;60.17;nan
66560;BME280;53413;49.878;8.142;2022-08-06T09:25:51;100945.38;;;61.09;nan
66560;BME280;53413;49.878;8.142;2022-08-06T09:28:37;100916.16;;;61.05;nan
66560;BME280;53413;49.878;8.142;2022-08-06T09:33:33;100926.38;;;62.23;nan
66560;BME280;53413;49.878;8.142;2022-08-06T09:36:12;100927.69;;;61.91;nan
66560;BME280;53413;49.878;8.142;2022-08-06T09:38:54;100916.00;;;60.40;nan
66560;BME280;53413;49.878;8.142;2022-08-06T09:41:22;100916.38;;;61.19;nan
66560;BME280;53413;49.878;8.142;2022-08-06T09:43:50;100914.06;;;61.32;nan
66560;BME280;53413;49.878;8.142;2022-08-06T09:46:17;100912.69;;;60.88;nan
66560;BME280;53413;49.878;8.142;2022-08-06T09:51:22;100903.03;;;55.37;nan
66560;BME280;53413;49.878;8.142;2022-08-06T09:53:56;100887.72;;;52.46;nan
66560;BME280;53413;49.878;8.142;2022-08-06T09:56:22;100881.50;;;52.90;nan
66560;BME280;53413;49.878;8.142;2022-08-06T09:58:48;100890.50;;;51.33;nan
66560;BME280;53413;49.878;8.142;2022-08-06T10:01:23;100873.16;;;50.80;nan
66560;BME280;53413;49.878;8.142;2022-08-06T10:03:50;100885.31;;;52.22;nan
66560;BME280;53413;49.878;8.142;2022-08-06T10:06:17;100885.34;;;53.82;nan
66560;BME280;53413;49.878;8.142;2022-08-06T10:08:50;100881.41;;;53.92;nan
66560;BME280;53413;49.878;8.142;2022-08-06T10:11:39;100878.28;;;54.41;nan
66560;BME280;53413;49.878;8.142;2022-08-06T10:14:28;100882.72;;;54.51;nan
66560;BME280;53413;49.878;8.142;2022-08-06T10:17:08;100874.00;;;54.82;nan
66560;BME280;53413;49.878;8.142;2022-08-06T10:19:35;100867.16;;;51.15;nan
66560;BME280;53413;49.878;8.142;2022-08-06T10:22:12;100859.53;;;45.34;nan
66560;BME280;53413;49.878;8.142;2022-08-06T10:24:43;100864.34;;;40.39;nan
66560;BME280;53413;49.878;8.142;2022-08-06T10:27:11;100872.19;;;37.60;nan
66560;BME280;53413;49.878;8.142;2022-08-06T10:29:51;100866.47;;;35.18;nan
66560;BME280;53413;49.878;8.142;2022-08-06T10:32:25;100875.34;;;33.53;nan
66560;BME280;53413;49.878;8.142;2022-08-06T10:34:55;100862.00;;;32.45;nan
66560;BME280;53413;49.878;8.142;2022-08-06T10:37:23;100875.59;;;32.13;nan
66560;BME280;53413;49.878;8.142;2022-08-06T10:39:51;100876.97;;;31.77;nan
66560;BME280;53413;49.878;8.142;2022-08-06T10:42:20;100875.03;;;30.65;nan
66560;BME280;53413;49.878;8.142;2022-08-06T10:44:46;100877.06;;;29.79;nan
66560;BME280;53413;49.878;8.142;2022-08-06T10:47:13;100870.16;;;29.85;nan
66560;BME280;53413;49.878;8.142;2022-08-06T10:49:39;100862.50;;;30.31;nan
66560;BME280;53413;49.878;8.142;2022-08-06T10:52:04;100859.16;;;30.70;nan
66560;BME280;53413;49.878;8.142;2022-08-06T10:54:30;100862.84;;;30.53;nan
66560;BME280;53413;49.878;8.142;2022-08-06T10:56:56;100863.19;;;30.33;nan
66560;BME280;53413;49.878;8.142;2022-08-06T10:59:22;100863.06;;;29.84;nan
66560;BME280;53413;49.878;8.142;2022-08-06T11:04:37;100860.84;;;28.83;nan
66560;BME280;53413;49.878;8.142;2022-08-06T11:13:54;100848.00;;;28.05;nan
66560;BME280;53413;49.878;8.142;2022-08-06T11:16:26;100844.44;;;28.04;nan
66560;BME280;53413;49.878;8.142;2022-08-06T11:21:37;100852.97;;;28.09;nan
66560;BME280;53413;49.878;8.142;2022-08-06T11:24:04;100844.84;;;27.91;nan
66560;BME280;53413;49.878;8.142;2022-08-06T11:26:35;100840.00;;;27.67;nan
66560;BME280;53413;49.878;8.142;2022-08-06T11:29:02;100847.69;;;27.62;nan
66560;BME280;53413;49.878;8.142;2022-08-06T11:31:34;100840.81;;;27.40;nan
66560;BME280;53413;49.878;8.142;2022-08-06T11:34:03;100842.72;;;27.29;nan
66560;BME280;53413;49.878;8.142;2022-08-06T11:37:00;100837.44;;;27.38;nan
66560;BME280;53413;49.878;8.142;2022-08-06T11:39:26;100838.75;;;27.61;nan
66560;BME280;53413;49.878;8.142;2022-08-06T11:41:59;100827.28;;;27.87;nan
66560;BME280;53413;49.878;8.142;2022-08-06T11:44:28;100831.13;;;28.03;nan
66560;BME280;53413;49.878;8.142;2022-08-06T11:47:15;100837.25;;;27.49;nan
66560;BME280;53413;49.878;8.142;2022-08-06T11:49:47;100823.41;;;27.06;nan
66560;BME280;53413;49.878;8.142;2022-08-06T11:55:04;100828.56;;;26.80;nan
66560;BME280;53413;49.878;8.142;2022-08-06T11:57:32;100820.91;;;26.65;nan
66560;BME280;53413;49.878;8.142;2022-08-06T12:07:42;100820.13;;;27.12;nan
66560;BME280;53413;49.878;8.142;2022-08-06T12:10:11;100817.53;;;26.83;nan
66560;BME280;53413;49.878;8.142;2022-08-06T12:17:41;100815.00;;;26.22;nan
66560;BME280;53413;49.878;8.142;2022-08-06T12:20:08;100814.72;;;26.25;nan
66560;BME280;53413;49.878;8.142;2022-08-06T12:22:35;100805.97;;;26.33;nan
66560;BME280;53413;49.878;8.142;2022-08-06T12:25:05;100809.06;;;26.58;nan
66560;BME280;53413;49.878;8.142;2022-08-06T12:27:33;100802.25;;;26.73;nan
66560;BME280;53413;49.878;8.142;2022-08-06T12:30:00;100796.44;;;26.88;nan
66560;BME280;53413;49.878;8.142;2022-08-06T12:32:30;100791.13;;;27.06;nan
66560;BME280;53413;49.878;8.142;2022-08-06T12:35:01;100789.03;;;27.00;nan
66560;BME280;53413;49.878;8.142;2022-08-06T12:37:43;100786.97;;;26.64;nan
66560;BME280;53413;49.878;8.142;2022-08-06T12:40:14;100785.84;;;26.47;nan
66560;BME280;53413;49.878;8.142;2022-08-06T12:42:52;100790.44;;;26.27;nan
66560;BME280;53413;49.878;8.142;2022-08-06T12:45:25;100792.09;;;26.08;nan
66560;BME280;53413;49.878;8.142;2022-08-06T12:48:10;100787.88;;;26.16;nan
66560;BME280;53413;49.878;8.142;2022-08-06T12:50:43;100788.13;;;26.03;nan
66560;BME280;53413;49.878;8.142;2022-08-06T12:53:10;100780.34;;;25.90;nan
66560;BME280;53413;49.878;8.142;2022-08-06T12:55:51;100775.41;;;25.95;nan
66560;BME280;53413;49.878;8.142;2022-08-06T12:58:24;100773.44;;;26.07;nan
66560;BME280;53413;49.878;8.142;2022-08-06T13:00:52;100772.75;;;26.34;nan
66560;BME280;53413;49.878;8.142;2022-08-06T13:03:20;100773.69;;;26.53;nan
66560;BME280;53413;49.878;8.142;2022-08-06T13:05:48;100770.00;;;26.54;nan
66560;BME280;53413;49.878;8.142;2022-08-06T13:08:14;100770.47;;;26.39;nan
66560;BME280;53413;49.878;8.142;2022-08-06T13:10:47;100775.81;;;25.80;nan
66560;BME280;53413;49.878;8.142;2022-08-06T13:13:13;100766.03;;;25.60;nan
66560;BME280;53413;49.878;8.142;2022-08-06T13:15:38;100761.94;;;25.65;nan
66560;BME280;53413;49.878;8.142;2022-08-06T13:23:05;100762.53;;;25.89;nan
66560;BME280;53413;49.878;8.142;2022-08-06T13:25:40;100757.44;;;25.86;nan
66560;BME280;53413;49.878;8.142;2022-08-06T13:28:24;100760.56;;;25.91;nan
66560;BME280;53413;49.878;8.142;2022-08-06T13:30:50;100755.31;;;25.89;nan
66560;BME280;53413;49.878;8.142;2022-08-06T13:33:21;100750.38;;;26.04;nan
66560;BME280;53413;49.878;8.142;2022-08-06T13:36:03;100745.91;;;26.15;nan
66560;BME280;53413;49.878;8.142;2022-08-06T13:38:33;100742.34;;;26.14;nan
66560;BME280;53413;49.878;8.142;2022-08-06T13:40:59;100740.66;;;26.13;nan
66560;BME280;53413;49.878;8.142;2022-08-06T13:43:38;100746.47;;;26.28;nan
66560;BME280;53413;49.878;8.142;2022-08-06T13:48:30;100738.50;;;26.46;nan
66560;BME280;53413;49.878;8.142;2022-08-06T13:50:55;100730.56;;;26.45;nan
66560;BME280;53413;49.878;8.142;2022-08-06T13:53:21;100734.63;;;26.58;nan
66560;BME280;53413;49.878;8.142;2022-08-06T13:55:46;100732.34;;;26.73;nan
66560;BME280;53413;49.878;8.142;2022-08-06T13:58:12;100725.97;;;26.74;nan
66560;BME280;53413;49.878;8.142;2022-08-06T14:00:37;100731.78;;;26.80;nan
66560;BME280;53413;49.878;8.142;2022-08-06T14:03:04;100731.66;;;26.81;nan
66560;BME280;53413;49.878;8.142;2022-08-06T14:05:30;100730.34;;;26.85;nan
66560;BME280;53413;49.878;8.142;2022-08-06T14:07:55;100734.06;;;26.65;nan
66560;BME280;53413;49.878;8.142;2022-08-06T14:10:21;100722.34;;;26.56;nan
66560;BME280;53413;49.878;8.142;2022-08-06T14:12:46;100725.63;;;26.50;nan
66560;BME280;53413;49.878;8.142;2022-08-06T14:15:32;100721.94;;;26.51;nan
66560;BME280;53413;49.878;8.142;2022-08-06T14:17:57;100719.44;;;26.39;nan
66560;BME280;53413;49.878;8.142;2022-08-06T14:20:23;100721.69;;;26.44;nan
66560;BME280;53413;49.878;8.142;2022-08-06T14:22:48;100725.44;;;26.61;nan
66560;BME280;53413;49.878;8.142;2022-08-06T14:25:13;100719.75;;;26.64;nan
66560;BME280;53413;49.878;8.142;2022-08-06T14:27:39;100722.31;;;26.66;nan
66560;BME280;53413;49.878;8.142;2022-08-06T14:30:05;100718.25;;;26.52;nan
66560;BME280;53413;49.878;8.142;2022-08-06T14:32:30;100710.50;;;26.29;nan
66560;BME280;53413;49.878;8.142;2022-08-06T14:34:56;100713.78;;;26.33;nan
66560;BME280;53413;49.878;8.142;2022-08-06T14:37:21;100713.78;;;26.33;nan
66560;BME280;53413;49.878;8.142;2022-08-06T14:39:46;100709.78;;;26.47;nan
66560;BME280;53413;49.878;8.142;2022-08-06T14:42:12;100712.91;;;26.52;nan